Time;durP1;ratioP1;P1;durP2;ratioP2;P2;SDS_P1;SDS_P2;PMS_P1;PMS_P2;Temp;Humidity;BMP_temperature;BMP_pressure;BME280_temperature;BME280_humidity;BME280_pressure;Samples;Min_cycle;Max_cycle;Signal;HPM_P1;HPM_P2
2021/11/16 00:00:50;;;;;;;39.90;29.80;;;8.00;1.00;9.40;101174.00;;;;4962786;28;20463;-78
2021/11/16 00:03:19;;;;;;;40.37;28.77;;;8.00;1.00;8.90;101161.00;;;;4974460;28;20514;-78
2021/11/16 00:05:47;;;;;;;43.27;30.40;;;8.00;1.00;9.30;101184.00;;;;4982728;28;20463;-79
2021/11/16 00:08:16;;;;;;;42.17;28.93;;;8.00;1.00;9.30;101166.00;;;;4991153;28;20468;-78
2021/11/16 00:10:44;;;;;;;42.10;29.70;;;8.00;1.00;9.20;101176.00;;;;4977412;28;20579;-78
2021/11/16 00:13:13;;;;;;;45.90;31.57;;;7.90;1.00;9.20;101172.00;;;;4971272;28;20805;-78
2021/11/16 00:15:44;;;;;;;44.90;30.60;;;7.90;1.00;9.20;101168.00;;;;4970499;28;20512;-78
2021/11/16 00:18:17;;;;;;;45.10;30.97;;;7.90;1.00;9.20;101138.00;;;;4977360;28;20463;-78
2021/11/16 00:20:45;;;;;;;44.80;29.87;;;7.90;1.00;9.30;101168.00;;;;4978423;28;20468;-78
2021/11/16 00:23:18;;;;;;;45.20;31.17;;;7.90;1.00;9.30;101188.00;;;;4978018;28;20475;-77
2021/11/16 00:25:51;;;;;;;49.40;31.20;;;7.90;1.00;9.20;101117.00;;;;4975075;28;20542;-77
2021/11/16 00:28:20;;;;;;;43.67;29.97;;;7.90;1.00;9.20;101162.00;;;;4979776;28;20473;-77
2021/11/16 00:30:49;;;;;;;46.47;31.97;;;7.90;1.00;9.10;101175.00;;;;4961258;28;21022;-77
2021/11/16 00:33:20;;;;;;;45.60;30.60;;;7.80;1.00;9.10;101173.00;;;;4975459;28;20486;-77
2021/11/16 00:35:50;;;;;;;45.43;31.33;;;7.90;1.00;9.20;101185.00;;;;4994353;28;20472;-78
2021/11/16 00:38:19;;;;;;;41.90;29.47;;;7.80;1.00;9.20;101163.00;;;;4972929;28;20483;-77
2021/11/16 00:40:49;;;;;;;50.00;31.67;;;7.90;1.00;9.20;101160.00;;;;4970330;28;20459;-76
2021/11/16 00:43:17;;;;;;;47.10;31.70;;;7.90;1.00;9.20;101169.00;;;;4975350;28;20459;-76
2021/11/16 00:45:47;;;;;;;50.73;32.60;;;7.90;1.00;9.20;101184.00;;;;4970194;28;20467;-77
2021/11/16 00:48:23;;;;;;;47.50;31.70;;;7.90;1.00;9.20;101174.00;;;;4971630;28;20482;-77
2021/11/16 00:50:57;;;;;;;51.47;32.57;;;7.90;1.00;9.10;101113.00;;;;4957539;28;20509;-76
2021/11/16 00:53:30;;;;;;;52.00;33.77;;;7.80;1.00;9.10;101167.00;;;;4981775;28;20443;-78
2021/11/16 00:56:02;;;;;;;52.50;31.83;;;7.80;1.00;9.20;101194.00;;;;4959535;28;20480;-77
2021/11/16 00:58:31;;;;;;;49.90;32.87;;;7.80;1.00;9.10;101173.00;;;;4964951;28;20475;-76
2021/11/16 01:01:00;;;;;;;52.33;33.43;;;7.80;1.00;8.90;101175.00;;;;4975607;28;20455;-76
2021/11/16 01:03:31;;;;;;;49.77;31.90;;;7.80;1.00;9.20;101070.00;;;;4976210;28;20538;-77
2021/11/16 01:06:00;;;;;;;50.23;30.90;;;7.80;1.00;9.10;101025.00;;;;4978566;28;20463;-77
2021/11/16 01:08:28;;;;;;;49.00;31.80;;;7.80;1.00;9.10;101182.00;;;;4978608;28;20481;-75
2021/11/16 01:10:58;;;;;;;49.30;31.53;;;7.80;1.00;9.10;101181.00;;;;4977309;28;20459;-77
2021/11/16 01:13:28;;;;;;;48.43;31.77;;;7.80;1.00;9.10;101091.00;;;;4974105;28;20912;-76
2021/11/16 01:15:58;;;;;;;48.30;31.73;;;7.80;1.00;9.10;101170.00;;;;4978707;28;20475;-77
2021/11/16 01:18:29;;;;;;;47.90;33.30;;;7.80;1.00;9.10;101178.00;;;;4988904;28;20478;-76
2021/11/16 01:20:59;;;;;;;51.30;32.13;;;7.80;1.00;9.00;101195.00;;;;4997180;28;20502;-80
2021/11/16 01:23:29;;;;;;;48.13;31.23;;;7.80;1.00;9.10;101181.00;;;;4984563;28;20444;-76
2021/11/16 01:25:59;;;;;;;51.57;33.60;;;7.80;1.00;9.10;101161.00;;;;4976064;28;20451;-76
2021/11/16 01:28:29;;;;;;;49.90;31.90;;;7.80;1.00;9.20;101167.00;;;;4970353;28;20479;-75
2021/11/16 01:31:01;;;;;;;49.10;33.50;;;7.80;1.00;9.10;101177.00;;;;4972752;28;20466;-76
2021/11/16 01:33:42;;;;;;;46.57;31.00;;;7.80;1.00;9.00;101147.00;;;;4977517;28;20851;-76
2021/11/16 01:36:12;;;;;;;51.77;33.83;;;7.80;1.00;9.10;101169.00;;;;4973547;28;20578;-76
2021/11/16 01:38:43;;;;;;;50.77;31.77;;;7.80;1.00;9.10;101161.00;;;;4971535;28;20480;-76
2021/11/16 01:41:13;;;;;;;43.80;31.00;;;7.80;1.00;9.10;101147.00;;;;4971015;28;21866;-77
2021/11/16 01:43:43;;;;;;;47.00;30.67;;;7.80;1.00;9.20;101164.00;;;;4974412;28;20458;-78
2021/11/16 01:46:17;;;;;;;47.47;32.13;;;7.80;1.00;9.00;101166.00;;;;4969873;28;20482;-76
2021/11/16 01:48:50;;;;;;;50.90;32.70;;;7.80;1.00;9.20;101144.00;;;;4980869;28;20478;-77
2021/11/16 01:51:24;;;;;;;50.17;32.37;;;7.80;1.00;9.10;101131.00;;;;4985799;28;20458;-76
2021/11/16 01:54:01;;;;;;;48.43;31.80;;;7.80;1.00;9.10;101137.00;;;;4993429;28;20466;-77
2021/11/16 01:56:33;;;;;;;46.17;31.63;;;7.80;1.00;9.10;101137.00;;;;4978679;28;20472;-75
2021/11/16 01:59:02;;;;;;;47.27;30.30;;;7.80;1.00;9.10;101155.00;;;;4982624;28;20519;-78
2021/11/16 02:01:32;;;;;;;49.47;31.50;;;7.80;1.00;9.10;101152.00;;;;4963417;28;20459;-77
2021/11/16 02:04:04;;;;;;;46.40;31.03;;;7.80;1.00;9.10;101170.00;;;;4960976;28;20456;-76
2021/11/16 02:06:37;;;;;;;47.70;31.47;;;7.80;1.00;8.90;101160.00;;;;4977885;28;20455;-75
2021/11/16 02:09:09;;;;;;;49.43;32.10;;;7.80;1.00;9.10;101134.00;;;;4986283;28;20478;-79
2021/11/16 02:11:40;;;;;;;51.70;32.20;;;7.80;1.00;9.10;101146.00;;;;4995515;28;20453;-76
2021/11/16 02:14:12;;;;;;;43.43;29.73;;;7.80;1.00;9.10;101081.00;;;;4989375;28;20443;-75
2021/11/16 02:16:42;;;;;;;50.80;31.80;;;7.80;1.00;9.10;101145.00;;;;4990912;28;20471;-77
2021/11/16 02:19:16;;;;;;;49.43;32.70;;;7.80;1.00;9.20;101139.00;;;;4985467;28;20486;-78
2021/11/16 02:21:47;;;;;;;46.33;31.50;;;7.80;1.00;9.20;101130.00;;;;4972176;28;20467;-77
2021/11/16 02:24:17;;;;;;;45.40;29.40;;;7.80;1.00;9.00;101102.00;;;;4980119;28;20467;-77
2021/11/16 02:26:45;;;;;;;45.77;30.53;;;7.80;1.00;9.20;101107.00;;;;4987047;28;20510;-77
2021/11/16 02:29:14;;;;;;;46.77;31.10;;;7.80;1.00;9.20;101119.00;;;;4992368;28;20463;-78
2021/11/16 02:31:45;;;;;;;46.10;30.70;;;7.80;1.00;9.20;101117.00;;;;4981698;28;20483;-78
2021/11/16 02:34:14;;;;;;;46.93;30.27;;;7.80;1.00;9.20;101125.00;;;;4977302;28;20443;-81
2021/11/16 02:36:43;;;;;;;52.50;31.93;;;7.80;1.00;9.10;101142.00;;;;4988030;28;20499;-76
2021/11/16 02:39:15;;;;;;;44.57;29.20;;;7.80;1.00;9.00;101099.00;;;;4994186;28;20479;-75
2021/11/16 02:41:51;;;;;;;47.63;29.57;;;7.80;1.00;9.10;101116.00;;;;4988951;28;20460;-75
2021/11/16 02:44:21;;;;;;;51.60;32.90;;;7.80;1.00;9.10;101109.00;;;;4988062;28;20486;-77
2021/11/16 02:46:52;;;;;;;53.43;32.27;;;7.80;1.00;9.10;101116.00;;;;4978963;28;20475;-76
2021/11/16 02:49:21;;;;;;;51.77;32.60;;;7.70;1.00;9.10;101108.00;;;;4972736;28;21072;-76
2021/11/16 02:51:50;;;;;;;50.77;31.70;;;7.70;1.00;9.10;101093.00;;;;4977592;28;20502;-77
2021/11/16 02:54:22;;;;;;;46.03;30.77;;;7.70;1.00;9.10;101100.00;;;;4976631;28;20535;-76
2021/11/16 02:56:51;;;;;;;48.50;30.30;;;7.80;1.00;8.90;101078.00;;;;4986486;28;20479;-76
2021/11/16 02:59:20;;;;;;;53.00;34.10;;;7.70;1.00;9.10;101105.00;;;;4993397;28;20466;-76
2021/11/16 03:01:48;;;;;;;50.20;31.57;;;7.70;1.00;9.10;101050.00;;;;4987030;28;20463;-78
2021/11/16 03:04:23;;;;;;;45.10;28.90;;;7.70;1.00;9.10;101110.00;;;;4977908;28;20490;-77
2021/11/16 03:06:52;;;;;;;46.10;30.50;;;7.80;1.00;9.00;101092.00;;;;4979218;28;20448;-76
2021/11/16 03:09:22;;;;;;;45.30;31.13;;;7.80;1.00;9.00;101075.00;;;;4985917;28;20474;-75
2021/11/16 03:11:50;;;;;;;47.50;31.43;;;7.70;1.00;9.00;101028.00;;;;4988619;28;20475;-76
2021/11/16 03:14:20;;;;;;;45.00;30.53;;;7.80;1.00;8.90;101083.00;;;;4985930;28;20432;-78
2021/11/16 03:16:48;;;;;;;48.37;31.53;;;7.80;1.00;9.00;101094.00;;;;4992731;28;20539;-77
2021/11/16 03:19:17;;;;;;;46.63;30.60;;;7.70;1.00;9.10;101089.00;;;;4992225;28;20479;-82
2021/11/16 03:21:54;;;;;;;51.20;30.07;;;7.80;1.00;9.10;101075.00;;;;4990622;28;20452;-76
2021/11/16 03:24:26;;;;;;;48.60;30.30;;;7.80;1.00;9.10;101083.00;;;;4974189;28;20893;-74
2021/11/16 03:26:55;;;;;;;42.53;29.70;;;7.70;1.00;9.20;101076.00;;;;4971919;28;20459;-76
2021/11/16 03:29:25;;;;;;;47.63;31.40;;;7.80;1.00;9.30;101075.00;;;;4968981;28;20542;-75
2021/11/16 03:32:04;;;;;;;46.60;28.97;;;7.80;1.00;9.30;101043.00;;;;4971890;28;20456;-77
2021/11/16 03:34:33;;;;;;;47.87;30.87;;;7.80;1.00;9.40;101073.00;;;;4960863;28;20514;-77
2021/11/16 03:37:02;;;;;;;45.23;30.40;;;7.90;1.00;9.50;101075.00;;;;4974296;28;20558;-79
2021/11/16 03:39:32;;;;;;;44.67;31.07;;;7.90;1.00;9.50;101085.00;;;;4956277;28;20479;-77
2021/11/16 03:42:01;;;;;;;44.80;29.97;;;7.90;1.00;9.60;101050.00;;;;4963851;28;20465;-77
2021/11/16 03:44:29;;;;;;;43.80;30.60;;;7.90;1.00;9.60;101082.00;;;;4967497;28;20466;-73
2021/11/16 03:46:58;;;;;;;50.67;31.30;;;7.90;1.00;9.60;101072.00;;;;4954118;28;20518;-78
2021/11/16 03:49:26;;;;;;;50.43;31.50;;;7.90;1.00;9.60;101076.00;;;;4984439;28;20471;-81
2021/11/16 03:51:55;;;;;;;46.17;31.13;;;7.90;1.00;9.20;101071.00;;;;4987368;28;20459;-76
2021/11/16 03:54:24;;;;;;;51.40;31.50;;;7.90;1.00;9.50;101063.00;;;;4992978;28;20519;-77
2021/11/16 03:57:00;;;;;;;49.37;30.00;;;7.90;1.00;9.50;101085.00;;;;4982649;28;20475;-76
2021/11/16 03:59:30;;;;;;;48.00;31.20;;;7.90;1.00;9.40;101109.00;;;;4992777;28;20505;-78
2021/11/16 04:01:59;;;;;;;44.63;28.83;;;7.90;1.00;9.40;101072.00;;;;4996640;28;20463;-78
2021/11/16 04:04:28;;;;;;;54.43;31.37;;;7.90;1.00;9.40;101068.00;;;;4981679;28;20483;-77
2021/11/16 04:06:56;;;;;;;46.50;30.67;;;7.90;1.00;9.40;101063.00;;;;4971208;28;20530;-78
2021/11/16 04:09:25;;;;;;;48.20;30.70;;;7.80;1.00;9.40;101063.00;;;;4974755;28;20471;-77
2021/11/16 04:11:54;;;;;;;47.20;31.93;;;7.90;1.00;9.40;101052.00;;;;4955363;28;20456;-78
2021/11/16 04:14:23;;;;;;;47.40;31.70;;;7.90;1.00;9.40;101079.00;;;;4949105;28;20464;-77
2021/11/16 04:16:52;;;;;;;46.77;30.70;;;7.90;1.00;9.40;100996.00;;;;4981967;28;20472;-77
2021/11/16 04:19:21;;;;;;;47.90;32.07;;;7.90;1.00;9.40;101074.00;;;;4973780;28;20467;-77
2021/11/16 04:21:49;;;;;;;50.97;32.07;;;7.90;1.00;9.40;101075.00;;;;4981558;28;20447;-77
2021/11/16 04:24:19;;;;;;;47.03;30.27;;;7.90;1.00;9.40;101067.00;;;;4974983;28;20455;-77
2021/11/16 04:26:47;;;;;;;47.37;32.60;;;7.80;1.00;9.40;101069.00;;;;4967470;28;20475;-78
2021/11/16 04:29:17;;;;;;;53.43;32.97;;;7.80;1.00;9.40;101059.00;;;;4973825;28;20507;-78
2021/11/16 04:31:45;;;;;;;46.97;31.53;;;7.80;1.00;9.40;101063.00;;;;4971142;28;20463;-78
2021/11/16 04:34:14;;;;;;;47.27;30.40;;;7.90;1.00;9.30;101061.00;;;;4955431;28;20526;-78
2021/11/16 04:36:42;;;;;;;53.63;33.77;;;7.80;1.00;9.30;100983.00;;;;4975295;28;20472;-78
2021/11/16 04:39:11;;;;;;;56.23;34.00;;;7.80;1.00;9.20;101050.00;;;;4980273;28;20479;-77
2021/11/16 04:41:40;;;;;;;50.43;32.17;;;7.80;1.00;9.20;101038.00;;;;4988452;28;20444;-78
2021/11/16 04:44:08;;;;;;;49.00;32.50;;;7.80;1.00;9.10;101047.00;;;;4989928;28;20534;-78
2021/11/16 04:46:39;;;;;;;56.53;32.60;;;7.70;1.00;9.20;100927.00;;;;4982234;28;20983;-78
2021/11/16 04:49:11;;;;;;;50.80;32.47;;;7.70;1.00;9.10;101043.00;;;;4977490;28;21075;-78
2021/11/16 04:55:01;;;;;;;52.93;32.80;;;7.80;1.00;9.20;101043.00;;;;4941367;28;20460;-78
2021/11/16 05:03:09;;;;;;;47.73;31.67;;;7.70;1.00;9.10;101039.00;;;;4969574;28;20467;-78
2021/11/16 05:05:37;;;;;;;53.53;34.87;;;7.70;1.00;9.10;101040.00;;;;4972891;28;20451;-78
2021/11/16 05:08:06;;;;;;;50.67;30.33;;;7.70;1.00;9.10;100927.00;;;;4973563;28;20589;-78
2021/11/16 05:10:35;;;;;;;52.10;32.00;;;7.70;1.00;9.10;101059.00;;;;4977638;28;20459;-78
2021/11/16 05:13:03;;;;;;;50.40;31.70;;;7.80;1.00;9.10;101035.00;;;;4975866;28;20490;-78
2021/11/16 05:15:34;;;;;;;53.60;32.43;;;7.70;1.00;9.10;101051.00;;;;4976612;28;20538;-77
2021/11/16 05:18:03;;;;;;;47.07;31.00;;;7.80;1.00;9.10;101054.00;;;;4965359;28;20488;-76
2021/11/16 05:20:32;;;;;;;50.37;32.80;;;7.80;1.00;9.20;101057.00;;;;4972246;28;20463;-76
2021/11/16 05:23:00;;;;;;;48.47;31.17;;;7.80;1.00;9.10;101062.00;;;;4975398;28;20462;-76
2021/11/16 05:25:29;;;;;;;46.50;31.00;;;7.80;1.00;9.10;101057.00;;;;4966897;28;20466;-76
2021/11/16 05:27:57;;;;;;;51.50;30.80;;;7.70;1.00;9.10;101057.00;;;;4973496;28;20486;-76
2021/11/16 05:30:29;;;;;;;47.57;31.20;;;7.70;1.00;9.10;101061.00;;;;4973893;28;20466;-76
2021/11/16 05:32:58;;;;;;;49.17;31.27;;;7.80;1.00;9.20;101023.00;;;;4958269;28;20466;-78
2021/11/16 05:35:27;;;;;;;49.30;30.63;;;7.80;1.00;9.20;101057.00;;;;4955658;28;20532;-77
2021/11/16 05:37:56;;;;;;;49.27;30.10;;;7.80;1.00;9.20;101051.00;;;;4967998;28;20984;-76
2021/11/16 05:40:24;;;;;;;52.80;32.77;;;7.80;1.00;9.10;101064.00;;;;4975442;28;20455;-76
2021/11/16 05:42:53;;;;;;;49.10;30.13;;;7.80;1.00;9.10;101044.00;;;;4975861;28;21043;-78
2021/11/16 05:45:21;;;;;;;48.20;31.00;;;7.80;1.00;9.10;101070.00;;;;4958404;28;20459;-77
2021/11/16 05:47:54;;;;;;;45.07;30.50;;;7.80;1.00;9.00;101020.00;;;;4974587;28;20463;-76
2021/11/16 05:50:22;;;;;;;42.73;31.80;;;7.80;1.00;9.00;101061.00;;;;4975664;28;20471;-76
2021/11/16 05:52:52;;;;;;;49.63;31.10;;;7.70;1.00;9.10;101071.00;;;;4969395;28;20452;-76
2021/11/16 05:55:21;;;;;;;51.30;32.10;;;7.70;1.00;9.10;101074.00;;;;4982454;28;20455;-76
2021/11/16 05:57:50;;;;;;;49.83;32.23;;;7.70;1.00;9.10;101074.00;;;;4983646;28;20938;-76
2021/11/16 06:00:19;;;;;;;49.70;31.67;;;7.70;1.00;9.10;101083.00;;;;4992988;28;20461;-78
2021/11/16 06:02:48;;;;;;;45.90;31.73;;;7.90;1.00;9.20;101044.00;;;;4988242;28;20972;-78
2021/11/16 06:05:17;;;;;;;49.73;32.20;;;7.80;1.00;9.20;101075.00;;;;4970614;28;20486;-77
2021/11/16 06:07:46;;;;;;;48.30;31.30;;;7.80;1.00;9.20;101080.00;;;;4975539;28;20541;-77
2021/11/16 06:10:16;;;;;;;49.60;32.30;;;7.80;1.00;9.30;101080.00;;;;4958012;28;20507;-77
2021/11/16 06:12:44;;;;;;;50.03;31.87;;;7.80;1.00;9.30;101078.00;;;;4973961;28;20459;-76
2021/11/16 06:15:12;;;;;;;46.10;31.00;;;7.80;1.00;9.40;101057.00;;;;4979901;28;20448;-76
2021/11/16 06:17:43;;;;;;;45.83;30.47;;;7.90;1.00;9.40;101080.00;;;;4974186;28;20471;-76
2021/11/16 06:20:17;;;;;;;46.90;30.60;;;7.90;1.00;9.40;101073.00;;;;4958413;28;20518;-76
2021/11/16 06:22:46;;;;;;;45.30;29.80;;;7.90;1.00;9.30;101076.00;;;;4958168;28;20554;-76
2021/11/16 06:25:16;;;;;;;42.53;28.23;;;7.90;1.00;9.30;101082.00;;;;4977293;28;20826;-76
2021/11/16 06:27:45;;;;;;;44.50;28.43;;;7.90;1.00;9.20;101062.00;;;;4958642;28;20483;-79
2021/11/16 06:30:13;;;;;;;46.13;31.13;;;7.80;1.00;9.20;101093.00;;;;4972798;28;20819;-77
2021/11/16 06:32:43;;;;;;;45.03;29.60;;;7.80;1.00;9.20;101076.00;;;;4968288;28;20448;-78
2021/11/16 06:35:17;;;;;;;44.37;29.80;;;7.80;1.00;9.20;101086.00;;;;4969802;28;20452;-77
2021/11/16 06:37:47;;;;;;;44.53;30.70;;;7.80;1.00;9.10;101095.00;;;;4968667;28;20483;-75
2021/11/16 06:40:18;;;;;;;41.60;28.53;;;7.80;1.00;9.10;101132.00;;;;4951978;28;21302;-76
2021/11/16 06:42:47;;;;;;;42.97;28.57;;;7.70;1.00;9.10;101104.00;;;;4970075;28;20456;-76
2021/11/16 06:45:16;;;;;;;46.67;29.70;;;7.70;1.00;9.10;101094.00;;;;4974533;28;20547;-76
2021/11/16 06:47:45;;;;;;;41.43;28.83;;;7.70;1.00;9.20;101104.00;;;;4974131;28;20494;-76
2021/11/16 06:50:15;;;;;;;40.33;26.93;;;7.80;1.00;9.20;101099.00;;;;4973485;28;20944;-79
2021/11/16 06:52:43;;;;;;;46.13;29.73;;;7.80;1.00;9.30;101114.00;;;;4956384;28;20787;-78
2021/11/16 06:55:12;;;;;;;45.17;27.87;;;7.80;1.00;9.30;101123.00;;;;4960834;28;21043;-76
2021/11/16 06:57:46;;;;;;;43.10;28.77;;;7.80;1.00;9.30;101127.00;;;;4974440;28;20668;-75
2021/11/16 07:00:16;;;;;;;42.07;28.10;;;7.90;1.00;9.40;101121.00;;;;4974631;28;20899;-76
2021/11/16 07:02:57;;;;;;;45.70;29.20;;;7.90;1.00;9.30;101117.00;;;;4971986;28;20464;-76
2021/11/16 07:05:28;;;;;;;44.87;27.60;;;7.90;1.00;9.40;101119.00;;;;4968855;28;20457;-78
2021/11/16 07:07:56;;;;;;;43.30;27.43;;;7.90;1.00;9.40;101118.00;;;;4973548;28;20480;-76
2021/11/16 07:10:31;;;;;;;43.97;26.90;;;8.00;1.00;9.40;101118.00;;;;4971578;28;20447;-75
2021/11/16 07:13:10;;;;;;;42.43;29.17;;;7.90;1.00;9.40;101144.00;;;;4963631;28;20554;-76
2021/11/16 07:15:39;;;;;;;40.43;27.00;;;7.90;1.00;9.40;101121.00;;;;4969940;28;20462;-76
2021/11/16 07:18:07;;;;;;;39.87;25.80;;;7.90;1.00;9.30;101108.00;;;;4972424;28;20517;-77
2021/11/16 07:20:36;;;;;;;42.80;27.50;;;7.90;1.00;9.30;101111.00;;;;4968471;28;20536;-77
2021/11/16 07:23:11;;;;;;;43.13;27.10;;;7.90;1.00;9.20;101123.00;;;;4971238;28;20934;-77
2021/11/16 07:25:41;;;;;;;40.53;27.50;;;7.90;1.00;9.20;101134.00;;;;4962878;28;20455;-77
2021/11/16 07:28:10;;;;;;;39.53;26.17;;;7.90;1.00;9.20;101136.00;;;;4969589;28;20940;-77
2021/11/16 07:30:39;;;;;;;38.97;27.20;;;7.90;1.00;9.20;101124.00;;;;4947931;28;20836;-78
2021/11/16 07:33:10;;;;;;;42.27;26.80;;;7.80;1.00;9.20;101131.00;;;;4972028;28;20479;-78
2021/11/16 07:35:40;;;;;;;42.03;26.47;;;7.80;1.00;9.20;101116.00;;;;4967901;28;20451;-78
2021/11/16 07:38:12;;;;;;;40.67;25.13;;;7.80;1.00;9.20;101134.00;;;;4974906;28;20530;-78
2021/11/16 07:40:45;;;;;;;43.80;27.77;;;7.90;1.00;9.20;101046.00;;;;4958177;28;20544;-78
2021/11/16 07:43:17;;;;;;;40.33;25.13;;;7.90;1.00;9.40;101137.00;;;;4988069;28;20451;-78
2021/11/16 07:45:48;;;;;;;42.30;27.27;;;7.90;1.00;9.40;101104.00;;;;4996057;28;20470;-79
2021/11/16 07:48:19;;;;;;;39.03;25.47;;;8.00;1.00;9.50;101077.00;;;;4986145;28;20507;-78
2021/11/16 07:50:55;;;;;;;38.20;25.33;;;8.00;1.00;9.50;101129.00;;;;4980158;28;20439;-79
2021/11/16 07:53:29;;;;;;;38.13;24.67;;;8.20;1.00;9.50;101138.00;;;;4976095;28;20451;-78
2021/11/16 07:56:05;;;;;;;48.17;25.43;;;8.00;1.00;9.50;101130.00;;;;4983124;28;20491;-78
2021/11/16 07:58:38;;;;;;;42.80;25.90;;;8.00;1.00;9.50;101117.00;;;;4980867;28;20480;-78
2021/11/16 08:01:11;;;;;;;47.77;26.47;;;8.00;1.00;9.50;101122.00;;;;4992766;28;20482;-78
2021/11/16 08:03:50;;;;;;;35.73;24.27;;;8.00;1.00;9.50;101119.00;;;;4967671;28;20510;-78
2021/11/16 08:06:30;;;;;;;40.77;26.07;;;8.00;1.00;9.50;101110.00;;;;4973035;28;20592;-78
2021/11/16 08:09:15;;;;;;;34.93;24.67;;;8.00;1.00;9.50;101119.00;;;;4973503;28;20490;-78
2021/11/16 08:11:46;;;;;;;38.40;25.03;;;8.00;1.00;9.50;101122.00;;;;4957557;28;20464;-78
2021/11/16 08:14:18;;;;;;;34.80;25.53;;;8.00;1.00;9.50;100967.00;;;;4976870;28;20455;-79
2021/11/16 08:16:54;;;;;;;40.97;26.30;;;8.00;1.00;9.50;101123.00;;;;4975299;28;20462;-78
2021/11/16 08:19:26;;;;;;;41.67;26.90;;;8.00;1.00;9.50;101126.00;;;;4988074;28;20459;-78
2021/11/16 08:21:56;;;;;;;40.00;25.37;;;8.10;1.00;9.50;101108.00;;;;4995711;28;20510;-77
2021/11/16 08:24:29;;;;;;;36.77;25.30;;;8.00;1.00;9.50;101091.00;;;;4991324;28;20975;-78
2021/11/16 08:26:59;;;;;;;40.10;26.03;;;8.10;1.00;9.50;101115.00;;;;4961251;28;21044;-77
2021/11/16 08:29:31;;;;;;;40.23;25.60;;;8.10;1.00;9.60;101119.00;;;;4976434;28;20562;-78
2021/11/16 08:32:05;;;;;;;39.50;25.83;;;8.10;1.00;9.60;101124.00;;;;4958266;28;20559;-78
2021/11/16 08:34:38;;;;;;;41.00;26.20;;;8.10;1.00;9.60;101099.00;;;;4972428;28;20512;-78
2021/11/16 08:37:09;;;;;;;38.77;25.80;;;8.10;1.00;9.60;101094.00;;;;4973954;28;20446;-78
2021/11/16 08:39:40;;;;;;;37.17;24.80;;;8.10;1.00;9.60;101056.00;;;;4962439;28;20483;-79
2021/11/16 08:42:16;;;;;;;30.20;22.60;;;8.20;1.00;9.60;101114.00;;;;4976410;28;20498;-77
2021/11/16 08:44:53;;;;;;;39.07;25.23;;;8.10;1.00;9.60;101118.00;;;;4973854;28;20455;-78
2021/11/16 08:47:27;;;;;;;32.60;23.17;;;8.20;1.00;9.60;100986.00;;;;4981622;28;20530;-79
2021/11/16 08:49:56;;;;;;;38.47;23.83;;;8.20;1.00;9.70;101060.00;;;;4984936;28;20482;-79
2021/11/16 08:52:27;;;;;;;30.43;22.63;;;8.20;1.00;9.70;101117.00;;;;4997098;28;20485;-77
2021/11/16 08:55:00;;;;;;;34.53;24.27;;;8.20;1.00;9.70;101119.00;;;;4971298;28;20457;-78
2021/11/16 08:57:31;;;;;;;33.57;23.13;;;8.20;1.00;9.70;101120.00;;;;4985861;28;20510;-77
2021/11/16 09:00:02;;;;;;;39.07;28.90;;;8.20;1.00;9.60;101112.00;;;;4992457;28;20476;-76
2021/11/16 09:02:31;;;;;;;49.70;34.70;;;8.30;1.00;9.70;101111.00;;;;4981872;28;20451;-77
2021/11/16 09:05:11;;;;;;;64.77;51.30;;;8.30;1.00;9.70;101111.00;;;;4977472;28;20463;-78
2021/11/16 09:07:54;;;;;;;68.60;54.10;;;8.30;1.00;9.70;100966.00;;;;4979470;28;20495;-79
2021/11/16 09:10:32;;;;;;;78.33;57.00;;;8.30;1.00;9.70;101108.00;;;;4947035;29;20512;-77
2021/11/16 09:13:04;;;;;;;74.23;59.73;;;8.30;1.00;9.70;101106.00;;;;4975028;28;20458;-77
2021/11/16 09:15:38;;;;;;;75.10;60.20;;;8.40;1.00;9.60;101106.00;;;;4970008;28;20456;-78
2021/11/16 09:18:28;;;;;;;73.07;58.00;;;8.30;1.00;9.80;101118.00;;;;4975672;28;20497;-79
2021/11/16 09:21:00;;;;;;;67.33;56.47;;;8.30;1.00;9.70;101101.00;;;;4968037;28;20862;-78
2021/11/16 09:23:32;;;;;;;67.87;51.97;;;8.30;1.00;9.60;101106.00;;;;4970790;28;20490;-77
2021/11/16 09:26:15;;;;;;;57.43;45.00;;;8.30;1.00;9.70;101099.00;;;;4958395;28;20452;-77
2021/11/16 09:28:50;;;;;;;50.20;40.27;;;8.20;1.00;9.70;101099.00;;;;4975116;28;20909;-77
2021/11/16 09:31:29;;;;;;;50.47;40.27;;;8.20;1.00;9.60;101105.00;;;;4976968;28;20537;-77
2021/11/16 09:34:05;;;;;;;49.30;35.90;;;8.20;1.00;9.80;101116.00;;;;4970599;28;21019;-78
2021/11/16 09:36:36;;;;;;;48.90;36.37;;;8.30;1.00;9.80;101123.00;;;;4970893;28;20820;-78
2021/11/16 09:39:09;;;;;;;43.73;34.07;;;8.30;1.00;9.70;101107.00;;;;4970985;28;20904;-78
2021/11/16 09:41:43;;;;;;;40.80;30.77;;;8.30;1.00;9.70;101101.00;;;;4954000;29;20463;-78
2021/11/16 09:44:21;;;;;;;38.77;28.33;;;8.30;1.00;9.70;101106.00;;;;4968155;28;20463;-78
2021/11/16 09:46:57;;;;;;;44.10;30.63;;;8.30;1.00;9.70;101119.00;;;;4969505;28;20453;-79
2021/11/16 09:49:31;;;;;;;44.13;31.87;;;8.30;1.00;9.70;101117.00;;;;4970629;28;20486;-78
2021/11/16 09:52:05;;;;;;;39.87;29.30;;;8.30;1.00;9.70;101116.00;;;;4962285;28;20457;-78
2021/11/16 09:54:52;;;;;;;43.90;31.77;;;8.30;1.00;9.70;101113.00;;;;4976689;28;20459;-78
2021/11/16 09:57:24;;;;;;;42.03;30.37;;;8.30;1.00;9.80;101116.00;;;;4966324;28;20494;-77
2021/11/16 10:00:01;;;;;;;43.73;30.20;;;8.30;1.00;9.80;101058.00;;;;4975589;28;20526;-78
2021/11/16 10:02:33;;;;;;;39.87;28.53;;;8.40;1.00;9.90;101067.00;;;;4960873;28;20479;-77
2021/11/16 10:05:08;;;;;;;40.40;26.77;;;8.40;1.00;9.90;101112.00;;;;4956020;28;20463;-78
2021/11/16 10:07:37;;;;;;;35.80;25.10;;;8.40;1.00;9.90;101111.00;;;;4975541;28;20778;-77
2021/11/16 10:10:07;;;;;;;33.23;24.47;;;8.50;1.00;9.90;101118.00;;;;4975684;28;20467;-78
2021/11/16 10:12:42;;;;;;;35.77;24.40;;;8.40;1.00;9.90;101133.00;;;;4972090;28;20465;-78
2021/11/16 10:15:14;;;;;;;36.67;25.10;;;8.50;1.00;9.90;101094.00;;;;4973033;28;20577;-77
2021/11/16 10:17:47;;;;;;;37.50;25.43;;;8.50;1.00;9.90;101124.00;;;;4977228;28;20448;-78
2021/11/16 10:20:19;;;;;;;36.50;24.40;;;8.50;1.00;10.00;101116.00;;;;4976568;28;20882;-78
2021/11/16 10:23:11;;;;;;;39.43;24.70;;;8.50;1.00;10.00;101111.00;;;;4977881;28;20546;-77
2021/11/16 10:25:50;;;;;;;33.90;23.90;;;8.50;1.00;10.00;100984.00;;;;4994245;28;20435;-77
2021/11/16 10:28:18;;;;;;;39.43;25.10;;;8.50;1.00;10.00;101110.00;;;;4987728;28;20497;-78
2021/11/16 10:30:48;;;;;;;32.53;23.30;;;8.50;1.00;10.00;101072.00;;;;4976188;28;20468;-78
2021/11/16 10:33:21;;;;;;;33.63;23.93;;;8.50;1.00;9.90;101112.00;;;;4969031;28;20464;-78
2021/11/16 10:35:53;;;;;;;35.10;24.40;;;8.50;1.00;9.80;101102.00;;;;4950719;28;20487;-78
2021/11/16 10:38:23;;;;;;;36.63;25.03;;;8.50;1.00;9.80;101113.00;;;;4955244;28;20507;-78
2021/11/16 10:40:54;;;;;;;33.23;24.07;;;8.50;1.00;9.80;101045.00;;;;4959001;28;20503;-77
2021/11/16 10:43:23;;;;;;;33.00;23.93;;;8.60;1.00;9.70;101102.00;;;;4982847;28;20447;-78
2021/11/16 10:45:52;;;;;;;40.97;26.03;;;8.40;1.00;9.70;101101.00;;;;4981403;28;20464;-78
2021/11/16 10:48:23;;;;;;;36.87;24.17;;;8.40;1.00;9.70;101092.00;;;;4981791;28;20487;-78
2021/11/16 10:50:52;;;;;;;32.03;23.63;;;8.40;1.00;9.70;101044.00;;;;4979237;28;20555;-77
2021/11/16 10:53:24;;;;;;;37.43;24.40;;;8.40;1.00;9.70;101070.00;;;;4983440;28;20443;-78
2021/11/16 10:55:55;;;;;;;37.80;27.03;;;8.30;1.00;9.70;101082.00;;;;4973866;28;20490;-79
2021/11/16 10:58:27;;;;;;;35.10;25.03;;;8.30;1.00;9.80;101085.00;;;;4963808;28;20618;-79
2021/11/16 11:00:58;;;;;;;38.60;25.47;;;8.40;1.00;9.80;101083.00;;;;4970342;28;20479;-78
2021/11/16 11:03:32;;;;;;;37.53;25.97;;;8.40;1.00;9.80;101093.00;;;;4974742;28;20460;-78
2021/11/16 11:06:08;;;;;;;40.70;25.80;;;8.40;1.00;9.80;101078.00;;;;4973243;28;20460;-79
2021/11/16 11:08:44;;;;;;;36.77;25.93;;;8.30;1.00;9.80;101061.00;;;;4952638;28;20483;-78
2021/11/16 11:11:26;;;;;;;38.40;25.63;;;8.30;1.00;9.80;101063.00;;;;4956392;28;21215;-77
2021/11/16 11:14:04;;;;;;;35.97;24.37;;;8.40;1.00;9.80;101067.00;;;;4972359;28;20824;-78
2021/11/16 11:16:36;;;;;;;34.10;23.83;;;8.40;1.00;9.80;101067.00;;;;4973294;28;20463;-79
2021/11/16 11:19:10;;;;;;;39.27;26.53;;;8.40;1.00;9.80;101055.00;;;;4977708;28;20508;-78
2021/11/16 11:21:44;;;;;;;35.10;24.53;;;8.40;1.00;9.80;101050.00;;;;4975270;28;20482;-78